Погода Жижиморихана неделю

Тверская область, Россия

25 - 31 мая
  • 25мая
    Сегодня
    +10°
    +25°
    Практически безоблачно
    ВремяПогодаТемператураВлажностьДавлениеВетер, м/сВероятность осадков
    00:00Ясно и безоблачно+12°C61 %760 мм3.3 м/с2 %
    03:00Практически безоблачно+10°C63 %761 мм3.1 м/с2 %
    06:00Ясно и безоблачно+12°C67 %760 мм2.9 м/с2 %
    09:00Ясно и безоблачно+19°C42 %760 мм3.3 м/с2 %
    12:00Ясно и безоблачно+22°C32 %759 мм3.9 м/с2 %
    15:00Практически безоблачно+24°C30 %758 мм4.2 м/с2 %
    18:00Ясно и безоблачно+24°C34 %757 мм3.9 м/с2 %
    21:00Ясно и безоблачно+18°C53 %756 мм2.5 м/с2 %
  • 26мая
    Воскресенье
    +9°
    +23°
    Облачно с прояснениями, ливень
    ВремяПогодаТемператураВлажностьДавлениеВетер, м/сВероятность осадков
    00:00Ясно и безоблачно+13°C63 %756 мм2.8 м/с2 %
    03:00Ясно и безоблачно+11°C73 %756 мм2.3 м/с2 %
    06:00Ясно и безоблачно+13°C75 %756 мм2.1 м/с2 %
    09:00Облачно с прояснениями+20°C60 %756 мм1.6 м/с13 %
    12:00Облачно с прояснениями, ливень+19°C76 %757 мм3.0 м/с52 %
    15:00Облачно с прояснениями, ливень+21°C65 %756 мм3.8 м/с62 %
    18:00Небольшая облачность+22°C35 %756 мм4.2 м/с24 %
    21:00Ясно и безоблачно+16°C42 %757 мм3.5 м/с5 %
  • 27мая
    Понедельник
    +9°
    +24°
    Ясно и безоблачно
    ВремяПогодаТемператураВлажностьДавлениеВетер, м/сВероятность осадков
    00:00Ясно и безоблачно+11°C54 %758 мм3.1 м/с1 %
    03:00Ясно и безоблачно+10°C68 %759 мм2.6 м/с2 %
    06:00Ясно и безоблачно+11°C65 %759 мм2.5 м/с2 %
    09:00Ясно и безоблачно+18°C46 %760 мм2.8 м/с2 %
    12:00Ясно и безоблачно+21°C35 %759 мм2.6 м/с2 %
    15:00Ясно и безоблачно+23°C31 %759 мм1.7 м/с2 %
    18:00Ясно и безоблачно+23°C31 %758 мм1.3 м/с2 %
    21:00Ясно и безоблачно+17°C61 %757 мм2.3 м/с2 %
  • 28мая
    Вторник
    +12°
    +26°
    Ясно и безоблачно
    ВремяПогодаТемператураВлажностьДавлениеВетер, м/сВероятность осадков
    00:00Ясно и безоблачно+12°C72 %757 мм2.0 м/с2 %
    03:00Ясно и безоблачно+10°C76 %757 мм2.2 м/с2 %
    06:00Ясно и безоблачно+14°C72 %756 мм2.1 м/с2 %
    09:00Ясно и безоблачно+21°C54 %756 мм1.2 м/с2 %
    12:00Ясно и безоблачно+25°C38 %756 мм1.8 м/с7 %
    15:00Ясно и безоблачно+25°C37 %755 мм1.9 м/с9 %
    18:00Ясно и безоблачно+26°C36 %753 мм1.3 м/с10 %
    21:00Ясно и безоблачно+18°C59 %753 мм2.0 м/с3 %
  • 29мая
    Среда
    +11°
    +28°
    Небольшая облачность
    ВремяПогодаТемператураВлажностьДавлениеВетер, м/сВероятность осадков
    00:00Ясно и безоблачно+14°C73 %753 мм1.9 м/с2 %
    03:00Ясно и безоблачно+13°C85 %752 мм2.4 м/с3 %
    06:00Ясно и безоблачно+16°C78 %752 мм2.0 м/с4 %
    09:00Ясно и безоблачно+23°C49 %752 мм0.6 м/с9 %
    12:00Ясно и безоблачно+26°C33 %751 мм0.6 м/с17 %
    15:00Небольшая облачность+27°C28 %750 мм0.3 м/с21 %
    18:00Облачно с прояснениями+27°C30 %749 мм0.8 м/с20 %
    21:00Практически безоблачно+21°C47 %749 мм1.5 м/с10 %
Мы используем cookies
Соглашаюсь